Terminal Aerodrome Forecast
Issued by NWS Quad Cities IA IL

Home | Current Version | Previous Version | Text Only | Print | Product List | Glossary On
Versions: 1 2 3 4 5 6 7 8 9 10 11 12 13 14 15 16 17 18 19 20 21 22
363
FTUS43 KDVN 020713 AAA
TAFMLI
TAF AMD
KMLI 020713Z 0207/0306 28007KT P6SM OVC035
      TEMPO 0207/0209 -RASN SCT015 OVC025
     FM021800 29008KT P6SM OVC035=

USA.gov is the U.S. government's official web portal to all federal, state and local government web resources and services.